SCO15ST EGPH-EGAA
Flight info
| Callsign | SCO15ST |
|---|---|
| Flight time | 0h 30m |
| Altitude | 22000 |
| Route | GOSAM P600 BLACA DCT BELZU |
| Aircraft | A320/M-SDE3FGHIRWY/LB1 |
Departure
| Time | 2026-05-04 11:05 |
|---|---|
| Airport | Edinburgh Airport (EGPH) |
Arrival
| Time | 2026-05-04 11:36 |
|---|---|
| Airport | Belfast International Airport (EGAA) |
| Time | Latitude | Longitude | Altitude | Speed | Heading |
|---|---|---|---|---|---|
| 2026-05-04 10:34 | 55.94657 | -3.36615 | 115 ft | 0 kts | 89° |
| 2026-05-04 10:54 | 55.94657 | -3.36634 | 113 ft | 4 kts | 89° |
| 2026-05-04 10:54 | 55.94656 | -3.36682 | 114 ft | 3 kts | 89° |
| 2026-05-04 10:56 | 55.94621 | -3.36734 | 113 ft | 0 kts | 359° |
| 2026-05-04 10:57 | 55.94625 | -3.36734 | 113 ft | 4 kts | 359° |
| 2026-05-04 10:57 | 55.94663 | -3.36735 | 115 ft | 6 kts | 359° |
| 2026-05-04 10:57 | 55.94721 | -3.36736 | 116 ft | 8 kts | 359° |
| 2026-05-04 10:58 | 55.94771 | -3.36768 | 114 ft | 7 kts | 331° |
| 2026-05-04 10:58 | 55.94821 | -3.36778 | 116 ft | 7 kts | 359° |
| 2026-05-04 10:58 | 55.94868 | -3.36782 | 116 ft | 6 kts | 351° |
| 2026-05-04 10:58 | 55.94908 | -3.36816 | 114 ft | 8 kts | 331° |
| 2026-05-04 10:59 | 55.94959 | -3.36796 | 116 ft | 9 kts | 49° |
| 2026-05-04 10:59 | 55.95006 | -3.36663 | 115 ft | 15 kts | 58° |
| 2026-05-04 10:59 | 55.95065 | -3.36487 | 114 ft | 20 kts | 59° |
| 2026-05-04 10:59 | 55.95135 | -3.36282 | 115 ft | 19 kts | 61° |
| 2026-05-04 11:00 | 55.95200 | -3.36087 | 113 ft | 18 kts | 58° |
| 2026-05-04 11:01 | 55.95502 | -3.35769 | 113 ft | 40 kts | 239° |
| 2026-05-04 11:02 | 55.95221 | -3.36598 | 112 ft | 113 kts | 238° |
| 2026-05-04 11:02 | 55.94709 | -3.38089 | 202 ft | 160 kts | 241° |
| 2026-05-04 11:05 | 55.88007 | -3.75285 | 11087 ft | 305 kts | 261° |
| 2026-05-04 11:06 | 55.87627 | -3.79045 | 11907 ft | 311 kts | 261° |
| 2026-05-04 11:06 | 55.87247 | -3.82830 | 12738 ft | 316 kts | 261° |
| 2026-05-04 11:06 | 55.86859 | -3.86724 | 13585 ft | 321 kts | 261° |
| 2026-05-04 11:06 | 55.86465 | -3.90681 | 14366 ft | 326 kts | 262° |
| 2026-05-04 11:08 | 55.80985 | -4.17501 | 19293 ft | 365 kts | 217° |
| 2026-05-04 11:10 | 55.65945 | -4.36077 | 22074 ft | 365 kts | 217° |
| 2026-05-04 11:12 | 55.51485 | -4.53868 | 22082 ft | 361 kts | 217° |
| 2026-05-04 11:12 | 55.49418 | -4.56398 | 22084 ft | 361 kts | 217° |
| 2026-05-04 11:12 | 55.47351 | -4.58920 | 22085 ft | 362 kts | 217° |
| 2026-05-04 11:12 | 55.45283 | -4.61442 | 22087 ft | 362 kts | 217° |
| 2026-05-04 11:13 | 55.43213 | -4.63969 | 22078 ft | 362 kts | 217° |
| 2026-05-04 11:13 | 55.41151 | -4.66482 | 22078 ft | 362 kts | 217° |
| 2026-05-04 11:13 | 55.39076 | -4.69015 | 22070 ft | 362 kts | 217° |
| 2026-05-04 11:13 | 55.37004 | -4.71535 | 22072 ft | 362 kts | 216° |
| 2026-05-04 11:14 | 55.34926 | -4.74051 | 22075 ft | 363 kts | 216° |
| 2026-05-04 11:14 | 55.32853 | -4.76558 | 22077 ft | 363 kts | 216° |
| 2026-05-04 11:14 | 55.30723 | -4.78940 | 22076 ft | 364 kts | 209° |
| 2026-05-04 11:16 | 55.14870 | -4.92846 | 21743 ft | 358 kts | 208° |
| 2026-05-04 11:16 | 55.12650 | -4.94786 | 21292 ft | 356 kts | 208° |
| 2026-05-04 11:16 | 55.10443 | -4.96714 | 20849 ft | 353 kts | 208° |
| 2026-05-04 11:17 | 55.08249 | -4.98624 | 20403 ft | 352 kts | 208° |
| 2026-05-04 11:17 | 55.06065 | -5.00529 | 19963 ft | 350 kts | 208° |
| 2026-05-04 11:19 | 54.91068 | -5.13588 | 16929 ft | 336 kts | 213° |
| 2026-05-04 11:19 | 54.89229 | -5.16108 | 16517 ft | 331 kts | 228° |
| 2026-05-04 11:19 | 54.87838 | -5.19242 | 16138 ft | 325 kts | 241° |
| 2026-05-04 11:19 | 54.86939 | -5.22744 | 15763 ft | 321 kts | 253° |
| 2026-05-04 11:20 | 54.86212 | -5.26393 | 15383 ft | 319 kts | 252° |
| 2026-05-04 11:20 | 54.85481 | -5.30010 | 15006 ft | 316 kts | 252° |
| 2026-05-04 11:20 | 54.84748 | -5.33601 | 14633 ft | 314 kts | 252° |
| 2026-05-04 11:20 | 54.84018 | -5.37160 | 14254 ft | 313 kts | 252° |
| 2026-05-04 11:22 | 54.79041 | -5.61382 | 11599 ft | 296 kts | 252° |
| 2026-05-04 11:22 | 54.78349 | -5.64731 | 11210 ft | 294 kts | 252° |
| 2026-05-04 11:23 | 54.77660 | -5.68060 | 10833 ft | 293 kts | 252° |
| 2026-05-04 11:23 | 54.76972 | -5.71372 | 10476 ft | 291 kts | 251° |
| 2026-05-04 11:24 | 54.79883 | -5.90012 | 7864 ft | 273 kts | 272° |
| 2026-05-04 11:25 | 54.79812 | -5.93301 | 7387 ft | 274 kts | 267° |
| 2026-05-04 11:25 | 54.79674 | -5.96595 | 6915 ft | 274 kts | 267° |
| 2026-05-04 11:25 | 54.79530 | -5.99811 | 6443 ft | 264 kts | 266° |
| 2026-05-04 11:26 | 54.79269 | -6.05907 | 5428 ft | 249 kts | 266° |
| 2026-05-04 11:27 | 54.76638 | -6.23812 | 4966 ft | 220 kts | 255° |
| 2026-05-04 11:28 | 54.76176 | -6.26471 | 5009 ft | 238 kts | 246° |
| 2026-05-04 11:28 | 54.75117 | -6.28696 | 5009 ft | 246 kts | 218° |
| 2026-05-04 11:28 | 54.73649 | -6.30242 | 5002 ft | 249 kts | 211° |
| 2026-05-04 11:28 | 54.72109 | -6.31619 | 5003 ft | 249 kts | 208° |
| 2026-05-04 11:29 | 54.70518 | -6.32829 | 5009 ft | 249 kts | 205° |
| 2026-05-04 11:29 | 54.68957 | -6.33814 | 4905 ft | 241 kts | 197° |
| 2026-05-04 11:29 | 54.67289 | -6.34266 | 4679 ft | 237 kts | 188° |
| 2026-05-04 11:29 | 54.65645 | -6.34474 | 4323 ft | 237 kts | 186° |
| 2026-05-04 11:31 | 54.54251 | -6.31098 | 2506 ft | 242 kts | 141° |
| 2026-05-04 11:33 | 54.53345 | -6.15448 | 2509 ft | 196 kts | 4° |
| 2026-05-04 11:33 | 54.54688 | -6.15685 | 2516 ft | 194 kts | 345° |
| 2026-05-04 11:33 | 54.55903 | -6.16394 | 2519 ft | 175 kts | 336° |
| 2026-05-04 11:34 | 54.56988 | -6.17219 | 2508 ft | 168 kts | 336° |
| 2026-05-04 11:34 | 54.58055 | -6.18049 | 2244 ft | 166 kts | 335° |
| 2026-05-04 11:34 | 54.59083 | -6.18865 | 1942 ft | 157 kts | 335° |
| 2026-05-04 11:34 | 54.60048 | -6.19597 | 1592 ft | 148 kts | 338° |
| 2026-05-04 11:35 | 54.60996 | -6.20184 | 1192 ft | 143 kts | 338° |
| 2026-05-04 11:35 | 54.61945 | -6.20716 | 811 ft | 142 kts | 341° |
| 2026-05-04 11:35 | 54.62858 | -6.21216 | 590 ft | 135 kts | 340° |
| 2026-05-04 11:35 | 54.63754 | -6.21718 | 418 ft | 136 kts | 342° |
| 2026-05-04 11:36 | 54.64647 | -6.22224 | 283 ft | 131 kts | 341° |
| 2026-05-04 11:36 | 54.65393 | -6.22641 | 272 ft | 85 kts | 342° |
| 2026-05-04 11:36 | 54.65652 | -6.22785 | 272 ft | 19 kts | 342° |
| 2026-05-04 11:36 | 54.65741 | -6.22717 | 275 ft | 17 kts | 77° |
| 2026-05-04 11:37 | 54.65750 | -6.22536 | 272 ft | 13 kts | 84° |
| 2026-05-04 11:37 | 54.65761 | -6.22386 | 272 ft | 12 kts | 83° |
| 2026-05-04 11:37 | 54.65771 | -6.22247 | 272 ft | 11 kts | 83° |
| 2026-05-04 11:37 | 54.65791 | -6.22108 | 272 ft | 13 kts | 69° |
| 2026-05-04 11:38 | 54.65830 | -6.21962 | 275 ft | 14 kts | 64° |
| 2026-05-04 11:38 | 54.65880 | -6.21776 | 272 ft | 21 kts | 65° |
| 2026-05-04 11:38 | 54.65943 | -6.21544 | 274 ft | 22 kts | 64° |
| 2026-05-04 11:38 | 54.66002 | -6.21323 | 272 ft | 20 kts | 65° |
| 2026-05-04 11:39 | 54.66055 | -6.21215 | 272 ft | 10 kts | 4° |
| 2026-05-04 11:39 | 54.66125 | -6.21262 | 273 ft | 12 kts | 334° |
| 2026-05-04 11:40 | 54.66193 | -6.21203 | 272 ft | 0 kts | 65° |